Time;durP1;ratioP1;P1;durP2;ratioP2;P2;SDS_P1;SDS_P2;PMS_P1;PMS_P2;Temp;Humidity;BMP_temperature;BMP_pressure;BME280_temperature;BME280_humidity;BME280_pressure;Samples;Min_cycle;Max_cycle;Signal;HPM_P1;HPM_P2
2021/01/29 00:01:18;;;;;;;32.57;13.80;;;9.30;93.30;;;;;;5111697;28;20032;-76
2021/01/29 00:03:43;;;;;;;37.90;15.07;;;9.30;93.60;;;;;;5092006;28;20040;-75
2021/01/29 00:06:09;;;;;;;30.87;14.23;;;9.30;93.40;;;;;;5076563;28;20131;-77
2021/01/29 00:08:35;;;;;;;28.70;14.50;;;9.40;93.40;;;;;;5093653;28;20042;-77
2021/01/29 00:11:02;;;;;;;30.93;13.07;;;9.30;93.30;;;;;;5077584;28;20088;-77
2021/01/29 00:13:28;;;;;;;33.47;12.67;;;9.40;93.30;;;;;;5085069;28;20020;-77
2021/01/29 00:15:54;;;;;;;32.40;11.83;;;9.40;93.30;;;;;;5090592;28;20436;-76
2021/01/29 00:18:21;;;;;;;34.47;11.87;;;9.40;93.30;;;;;;5085278;28;20055;-76
2021/01/29 00:20:47;;;;;;;33.77;9.87;;;9.40;93.30;;;;;;5110544;28;20114;-77
2021/01/29 00:23:14;;;;;;;32.33;11.07;;;9.40;93.20;;;;;;5110134;28;20027;-76
2021/01/29 00:25:45;;;;;;;38.20;11.33;;;9.30;93.20;;;;;;5077084;28;20058;-76
2021/01/29 00:28:11;;;;;;;32.40;10.57;;;9.40;93.30;;;;;;5110116;28;20027;-77
2021/01/29 00:30:37;;;;;;;42.63;11.43;;;9.30;93.20;;;;;;5076091;28;20513;-76
2021/01/29 00:33:05;;;;;;;35.97;10.37;;;9.30;93.20;;;;;;5110628;28;20028;-76
2021/01/29 00:35:32;;;;;;;33.53;11.03;;;9.30;93.20;;;;;;5111067;28;20028;-76
2021/01/29 00:37:59;;;;;;;34.30;9.73;;;9.20;93.20;;;;;;5110747;28;20032;-77
2021/01/29 00:40:25;;;;;;;37.50;11.37;;;9.30;93.20;;;;;;5111120;28;20060;-76
2021/01/29 00:42:51;;;;;;;33.90;10.73;;;9.20;93.30;;;;;;5076257;28;20032;-76
2021/01/29 00:45:20;;;;;;;41.20;10.73;;;9.20;93.30;;;;;;5091839;28;20532;-77
2021/01/29 00:47:45;;;;;;;32.80;10.63;;;9.20;93.30;;;;;;5093413;28;20043;-76
2021/01/29 00:50:11;;;;;;;34.67;10.70;;;9.20;93.30;;;;;;5093575;28;20020;-75
2021/01/29 00:52:38;;;;;;;37.13;11.27;;;9.10;93.40;;;;;;5082368;28;20036;-76
2021/01/29 00:55:05;;;;;;;31.70;10.40;;;9.20;93.40;;;;;;5072919;28;20387;-76
2021/01/29 00:57:31;;;;;;;37.83;11.53;;;9.10;93.40;;;;;;5081584;28;20127;-76
2021/01/29 00:59:57;;;;;;;34.07;10.60;;;9.10;93.50;;;;;;5058905;28;20051;-76
2021/01/29 01:02:22;;;;;;;53.17;12.33;;;9.10;93.50;;;;;;5109383;28;20367;-77
2021/01/29 01:04:48;;;;;;;31.57;11.00;;;9.10;93.40;;;;;;5111287;28;20035;-77
2021/01/29 01:07:14;;;;;;;39.60;11.57;;;9.10;93.50;;;;;;5092203;28;20486;-77
2021/01/29 01:09:40;;;;;;;45.33;12.60;;;9.10;93.50;;;;;;5091622;28;20024;-77
2021/01/29 01:12:07;;;;;;;36.70;9.80;;;9.00;93.50;;;;;;5111789;28;20426;-77
2021/01/29 01:14:33;;;;;;;44.63;10.97;;;9.00;93.50;;;;;;5091261;28;20028;-77
2021/01/29 01:16:59;;;;;;;33.60;10.27;;;9.00;93.60;;;;;;5073463;28;20050;-76
2021/01/29 01:19:25;;;;;;;34.07;9.80;;;9.00;93.60;;;;;;5110403;28;20038;-77
2021/01/29 01:21:51;;;;;;;31.43;9.90;;;9.00;93.60;;;;;;5088958;28;20457;-77
2021/01/29 01:24:16;;;;;;;37.97;9.93;;;9.00;93.60;;;;;;5093712;28;20036;-78
2021/01/29 01:26:42;;;;;;;40.10;11.73;;;9.00;93.60;;;;;;5103692;28;20103;-78
2021/01/29 01:29:07;;;;;;;31.80;9.00;;;9.00;93.70;;;;;;5124084;28;20032;-77
2021/01/29 01:31:33;;;;;;;31.50;10.17;;;9.00;93.70;;;;;;5123125;28;20087;-77
2021/01/29 01:33:59;;;;;;;25.80;8.70;;;9.00;93.80;;;;;;5104030;28;20031;-77
2021/01/29 01:36:24;;;;;;;33.63;9.43;;;8.90;93.80;;;;;;5075014;28;20494;-77
2021/01/29 01:38:50;;;;;;;25.50;8.93;;;9.00;93.80;;;;;;5075413;28;20036;-78
2021/01/29 01:41:17;;;;;;;36.57;9.90;;;9.00;93.90;;;;;;5089874;28;20043;-77
2021/01/29 01:43:42;;;;;;;29.03;9.40;;;9.00;93.90;;;;;;5091488;28;20057;-77
2021/01/29 01:46:11;;;;;;;31.83;9.60;;;8.90;93.90;;;;;;5075812;28;20042;-77
2021/01/29 01:48:55;;;;;;;52.43;13.47;;;9.00;94.10;;;;;;5091120;28;20118;-77
2021/01/29 01:51:41;;;;;;;31.20;12.60;;;8.90;94.00;;;;;;5098064;28;20031;-77
2021/01/29 01:54:44;;;;;;;40.90;12.03;;;8.90;94.00;;;;;;5090603;28;20027;-77
2021/01/29 01:57:13;;;;;;;34.35;12.70;;;9.00;94.20;;;;;;5088314;28;20477;-78
2021/01/29 01:59:50;;;;;;;35.70;12.13;;;8.90;94.20;;;;;;5090051;28;20055;-78
2021/01/29 02:02:21;;;;;;;29.67;11.83;;;8.90;94.30;;;;;;5090493;28;20031;-77
2021/01/29 02:04:49;;;;;;;28.23;11.50;;;9.00;94.30;;;;;;5091534;28;20027;-78
2021/01/29 02:07:38;;;;;;;32.50;12.33;;;9.00;94.30;;;;;;5092294;28;20024;-78
2021/01/29 02:10:04;;;;;;;27.20;12.33;;;9.00;94.40;;;;;;5108639;28;20032;-78
2021/01/29 02:12:30;;;;;;;31.97;13.03;;;9.00;94.40;;;;;;5091380;28;20027;-79
2021/01/29 02:14:56;;;;;;;26.80;12.97;;;9.00;94.50;;;;;;5091291;28;20076;-78
2021/01/29 02:17:26;;;;;;;25.53;13.13;;;9.00;94.50;;;;;;5112423;28;20043;-78
2021/01/29 02:20:12;;;;;;;24.57;14.37;;;9.10;94.60;;;;;;5114666;28;20095;-78
2021/01/29 02:23:04;;;;;;;23.23;14.07;;;9.00;94.60;;;;;;5110904;28;20027;-78
2021/01/29 02:25:54;;;;;;;38.13;20.87;;;9.10;94.60;;;;;;5093235;28;20429;-78
2021/01/29 02:28:39;;;;;;;34.63;21.00;;;9.10;94.60;;;;;;5113788;28;20030;-77
2021/01/29 02:31:35;;;;;;;38.50;22.00;;;9.00;94.70;;;;;;5070833;28;20043;-79
2021/01/29 02:34:30;;;;;;;36.07;21.67;;;9.10;94.70;;;;;;5106460;28;20031;-79
2021/01/29 02:37:34;;;;;;;31.07;19.43;;;9.10;94.80;;;;;;5092503;28;20035;-78
2021/01/29 02:40:02;;;;;;;27.60;17.75;;;9.10;94.80;;;;;;5105236;28;20062;-79
2021/01/29 02:42:52;;;;;;;27.87;17.87;;;9.20;94.80;;;;;;5113086;28;20066;-78
2021/01/29 02:45:43;;;;;;;24.47;15.50;;;9.20;94.80;;;;;;5095906;28;20513;-78
2021/01/29 02:48:20;;;;;;;32.70;17.90;;;9.20;94.80;;;;;;5113488;28;20375;-79
2021/01/29 02:51:14;;;;;;;21.97;15.40;;;9.30;94.80;;;;;;5110085;28;20036;-79
2021/01/29 02:54:07;;;;;;;21.37;14.83;;;9.20;94.80;;;;;;5112390;28;20019;-79
2021/01/29 02:56:56;;;;;;;22.25;14.93;;;9.30;94.80;;;;;;5092650;28;20244;-79
2021/01/29 02:59:28;;;;;;;21.50;14.17;;;9.30;94.80;;;;;;5113346;28;20031;-78
2021/01/29 03:02:00;;;;;;;19.93;13.50;;;9.30;94.80;;;;;;5094451;28;20073;-79
2021/01/29 03:04:37;;;;;;;21.97;13.27;;;9.30;94.80;;;;;;5096989;28;20028;-77
2021/01/29 03:07:24;;;;;;;24.77;13.57;;;9.40;94.80;;;;;;5102179;28;20856;-79
2021/01/29 03:10:01;;;;;;;19.30;11.57;;;9.30;94.80;;;;;;5093149;28;20036;-79
2021/01/29 03:12:34;;;;;;;25.10;13.00;;;9.30;94.80;;;;;;5078698;28;20034;-79
2021/01/29 03:15:14;;;;;;;15.65;9.85;;;9.30;94.90;;;;;;5112560;28;20031;-78
2021/01/29 03:17:50;;;;;;;20.07;9.90;;;9.30;94.90;;;;;;5094186;28;20064;-78
2021/01/29 03:20:42;;;;;;;21.00;11.30;;;9.40;94.90;;;;;;5086634;28;20058;-78
2021/01/29 03:23:20;;;;;;;16.00;9.00;;;9.40;94.90;;;;;;5074920;28;20387;-78
2021/01/29 03:25:51;;;;;;;20.47;10.93;;;9.40;94.90;;;;;;5076659;28;20039;-78
2021/01/29 03:28:22;;;;;;;18.13;11.10;;;9.40;94.80;;;;;;5091318;28;20039;-78
2021/01/29 03:30:50;;;;;;;22.60;9.80;;;9.30;94.80;;;;;;5104101;28;20020;-79
2021/01/29 03:33:18;;;;;;;18.97;9.50;;;9.40;94.80;;;;;;5093498;28;20577;-79
2021/01/29 03:35:57;;;;;;;13.77;7.93;;;9.30;94.80;;;;;;5093123;28;20110;-78
2021/01/29 03:38:44;;;;;;;15.37;8.53;;;9.40;94.90;;;;;;5113968;28;20044;-78
2021/01/29 03:41:10;;;;;;;15.23;8.17;;;9.40;94.90;;;;;;5089549;28;20103;-79
2021/01/29 03:43:49;;;;;;;10.57;6.73;;;9.40;94.90;;;;;;5090426;28;20123;-78
2021/01/29 03:46:25;;;;;;;11.23;6.77;;;9.40;94.90;;;;;;5111869;28;20032;-79
2021/01/29 03:49:02;;;;;;;10.43;6.67;;;9.50;94.90;;;;;;5092286;28;20097;-79
2021/01/29 03:51:51;;;;;;;10.57;7.00;;;9.50;94.80;;;;;;5111354;28;20037;-78
2021/01/29 03:54:24;;;;;;;16.73;7.03;;;9.50;94.80;;;;;;5094758;28;20027;-78
2021/01/29 03:56:52;;;;;;;10.75;6.60;;;9.50;94.70;;;;;;5111503;28;20106;-78
2021/01/29 03:59:26;;;;;;;14.27;6.93;;;9.50;94.70;;;;;;5092621;28;20462;-79
2021/01/29 04:02:00;;;;;;;12.97;6.60;;;9.50;94.70;;;;;;5095010;28;20092;-78
2021/01/29 04:04:33;;;;;;;10.03;6.03;;;9.50;94.80;;;;;;5094801;28;20024;-78
2021/01/29 04:07:38;;;;;;;15.43;7.53;;;9.60;94.80;;;;;;5090685;28;20051;-78
2021/01/29 04:10:13;;;;;;;11.97;6.70;;;9.60;94.70;;;;;;5111938;28;20399;-78
2021/01/29 04:12:49;;;;;;;14.70;7.57;;;9.50;94.70;;;;;;5112812;28;20027;-78
2021/01/29 04:15:28;;;;;;;11.57;6.10;;;9.50;94.70;;;;;;5110667;28;20031;-78
2021/01/29 04:18:08;;;;;;;13.63;6.60;;;9.50;94.60;;;;;;5093147;28;20244;-78
2021/01/29 04:21:05;;;;;;;10.70;7.17;;;9.40;94.70;;;;;;5093304;28;20360;-77
2021/01/29 04:23:50;;;;;;;15.90;7.60;;;9.40;94.70;;;;;;5105977;28;20104;-77
2021/01/29 04:26:47;;;;;;;11.27;5.93;;;9.40;94.80;;;;;;5112448;28;20032;-77
2021/01/29 04:29:18;;;;;;;8.57;5.97;;;9.40;94.70;;;;;;5073480;28;20037;-78
2021/01/29 04:31:48;;;;;;;9.03;5.00;;;9.40;94.70;;;;;;5111515;28;20031;-77
2021/01/29 04:34:23;;;;;;;8.23;6.10;;;9.40;94.70;;;;;;5092524;28;20032;-77
2021/01/29 04:36:53;;;;;;;11.03;5.60;;;9.50;94.80;;;;;;5110018;28;20111;-77
2021/01/29 04:39:28;;;;;;;7.97;5.73;;;9.50;94.70;;;;;;5092165;28;20062;-77
2021/01/29 04:42:07;;;;;;;8.00;5.57;;;9.50;94.70;;;;;;5111369;28;20036;-77
2021/01/29 04:45:13;;;;;;;7.87;5.40;;;9.50;94.70;;;;;;5093515;28;20019;-77
2021/01/29 04:47:53;;;;;;;7.87;4.83;;;9.50;94.70;;;;;;5088704;28;20040;-77
2021/01/29 04:50:29;;;;;;;14.07;6.50;;;9.60;94.70;;;;;;5087317;28;20016;-77
2021/01/29 04:53:26;;;;;;;8.97;5.40;;;9.60;94.60;;;;;;5072298;28;20032;-77
2021/01/29 04:56:03;;;;;;;9.10;5.87;;;9.60;94.60;;;;;;5107842;28;20075;-77
2021/01/29 04:58:32;;;;;;;11.00;6.00;;;9.60;94.60;;;;;;5093628;28;20039;-77
2021/01/29 05:01:34;;;;;;;8.33;5.57;;;9.50;94.50;;;;;;5108485;28;20024;-77
2021/01/29 05:04:30;;;;;;;9.90;5.37;;;9.50;94.60;;;;;;5092106;28;20080;-77
2021/01/29 05:07:18;;;;;;;7.97;4.63;;;9.60;94.60;;;;;;5092816;28;20672;-79
2021/01/29 05:10:07;;;;;;;5.90;4.23;;;9.60;94.60;;;;;;5091311;28;20115;-77
2021/01/29 05:12:47;;;;;;;7.83;3.97;;;9.70;94.60;;;;;;5112605;28;20023;-78
2021/01/29 05:15:27;;;;;;;6.50;3.73;;;9.80;94.60;;;;;;5088389;28;20386;-78
2021/01/29 05:18:15;;;;;;;5.40;3.90;;;9.80;94.50;;;;;;5079302;28;20152;-78
2021/01/29 05:20:49;;;;;;;6.70;3.67;;;9.90;94.40;;;;;;5107679;28;20061;-78
2021/01/29 05:23:43;;;;;;;4.87;3.00;;;9.90;94.40;;;;;;5112224;28;20352;-78
2021/01/29 05:26:28;;;;;;;2.43;2.10;;;9.80;94.40;;;;;;5093177;28;20131;-79
2021/01/29 05:29:22;;;;;;;3.43;1.50;;;9.90;94.40;;;;;;5091526;28;20038;-78
2021/01/29 05:32:09;;;;;;;2.77;1.63;;;9.90;94.30;;;;;;5069589;28;20032;-78
2021/01/29 05:35:01;;;;;;;3.17;1.53;;;9.90;94.30;;;;;;5104221;28;20039;-77
2021/01/29 05:37:35;;;;;;;1.97;1.30;;;9.90;94.20;;;;;;5095942;28;20068;-78
2021/01/29 05:40:19;;;;;;;1.70;1.20;;;9.90;94.20;;;;;;5109121;28;20161;-78
2021/01/29 05:43:06;;;;;;;1.50;1.20;;;9.90;94.10;;;;;;5110314;28;20115;-77
2021/01/29 05:45:41;;;;;;;1.83;1.53;;;9.90;93.90;;;;;;5106987;28;20063;-77
2021/01/29 05:48:13;;;;;;;1.90;1.40;;;9.90;93.70;;;;;;5110636;28;20032;-77
2021/01/29 05:50:51;;;;;;;1.92;1.33;;;9.90;93.60;;;;;;5092854;28;20120;-77
2021/01/29 05:53:34;;;;;;;1.60;1.13;;;9.80;93.30;;;;;;5114974;28;20031;-77
2021/01/29 05:56:11;;;;;;;;;;;9.80;93.20;;;;;;5094680;28;20069;-77
2021/01/29 05:58:48;;;;;;;2.50;2.30;;;9.70;93.10;;;;;;5115199;28;19919;-76
2021/01/29 06:01:32;;;;;;;2.70;2.40;;;9.70;93.10;;;;;;5113575;28;20107;-76
2021/01/29 06:04:34;;;;;;;3.77;3.33;;;9.60;93.10;;;;;;5095315;28;20391;-77
2021/01/29 06:07:33;;;;;;;3.33;2.77;;;9.70;93.10;;;;;;5086026;28;20024;-75
2021/01/29 06:10:23;;;;;;;3.20;2.90;;;9.70;93.10;;;;;;5102905;28;20028;-76
2021/01/29 06:13:00;;;;;;;4.00;3.20;;;9.60;93.00;;;;;;5095172;28;20035;-78
2021/01/29 06:15:48;;;;;;;3.43;3.13;;;9.60;93.00;;;;;;5094471;28;20361;-76
2021/01/29 06:18:48;;;;;;;3.67;3.27;;;9.70;93.00;;;;;;5113513;28;20090;-77
2021/01/29 06:21:35;;;;;;;4.50;4.10;;;9.60;92.90;;;;;;5093975;28;20027;-75
2021/01/29 06:24:16;;;;;;;5.30;4.90;;;9.60;92.90;;;;;;5095859;28;20051;-75
2021/01/29 06:26:55;;;;;;;7.80;3.93;;;9.60;92.90;;;;;;5095833;28;20245;-75
2021/01/29 06:29:29;;;;;;;4.40;4.00;;;9.60;92.90;;;;;;5094722;28;20027;-75
2021/01/29 06:32:22;;;;;;;3.87;3.57;;;9.60;93.10;;;;;;5113723;28;20067;-77
2021/01/29 06:35:06;;;;;;;5.90;5.30;;;9.70;92.80;;;;;;5104975;28;20028;-78
2021/01/29 06:37:50;;;;;;;6.83;4.83;;;9.60;92.80;;;;;;5076424;28;20090;-76
2021/01/29 06:40:41;;;;;;;6.20;5.63;;;9.70;92.80;;;;;;5111188;28;20532;-76
2021/01/29 06:43:19;;;;;;;7.20;5.80;;;9.60;92.80;;;;;;5095345;28;20024;-76
2021/01/29 06:46:22;;;;;;;5.53;4.93;;;9.70;92.80;;;;;;5093391;28;20023;-76
2021/01/29 06:49:05;;;;;;;7.70;6.18;;;9.70;92.90;;;;;;5094134;28;20031;-76
2021/01/29 06:51:50;;;;;;;6.50;5.97;;;9.70;92.90;;;;;;5096747;28;20056;-76
2021/01/29 06:54:53;;;;;;;7.30;6.60;;;9.70;92.90;;;;;;5102171;28;20103;-75
2021/01/29 06:57:36;;;;;;;9.48;7.72;;;9.70;92.90;;;;;;5095703;28;20110;-76
2021/01/29 07:00:15;;;;;;;8.90;7.97;;;9.70;92.90;;;;;;5097435;28;20081;-76
2021/01/29 07:03:03;;;;;;;9.53;8.60;;;9.70;92.90;;;;;;5075288;28;20024;-76
2021/01/29 07:05:31;;;;;;;10.37;9.37;;;9.70;92.90;;;;;;5107746;28;20039;-76
2021/01/29 07:08:09;;;;;;;12.60;9.83;;;9.70;92.90;;;;;;5094013;28;20028;-76
2021/01/29 07:11:02;;;;;;;10.73;9.63;;;9.70;92.90;;;;;;5100503;28;20055;-76
2021/01/29 07:13:42;;;;;;;10.48;9.25;;;9.80;93.00;;;;;;5095013;28;20039;-77
2021/01/29 07:16:28;;;;;;;13.80;10.23;;;9.80;92.90;;;;;;5087730;28;20111;-77
2021/01/29 07:20:11;;;;;;;11.93;9.40;;;9.80;93.00;;;;;;5113041;28;20048;-77
2021/01/29 07:22:56;;;;;;;13.70;9.57;;;9.70;93.00;;;;;;4998300;28;20482;-78
2021/01/29 07:25:43;;;;;;;12.00;8.83;;;9.70;93.10;;;;;;4994572;28;20043;-78
2021/01/29 07:28:29;;;;;;;13.30;8.87;;;9.80;93.20;;;;;;5073915;28;20379;-78
2021/01/29 07:31:13;;;;;;;11.93;8.20;;;9.70;93.10;;;;;;5092989;28;20024;-78
2021/01/29 07:33:51;;;;;;;17.17;7.53;;;9.70;93.20;;;;;;5106264;28;20024;-76
2021/01/29 07:36:54;;;;;;;14.97;6.37;;;9.70;93.10;;;;;;5111471;28;20020;-78
2021/01/29 07:39:22;;;;;;;10.30;5.20;;;9.80;93.00;;;;;;5086090;28;20060;-78
2021/01/29 07:42:20;;;;;;;13.70;5.30;;;9.80;92.90;;;;;;5105582;28;20027;-79
2021/01/29 07:44:58;;;;;;;11.90;5.00;;;9.80;92.70;;;;;;5088724;28;20507;-78
2021/01/29 07:47:54;;;;;;;13.87;6.67;;;9.80;92.60;;;;;;5110229;28;20024;-76
2021/01/29 07:50:38;;;;;;;14.33;6.23;;;9.80;92.60;;;;;;5111613;28;20210;-76
2021/01/29 07:53:14;;;;;;;13.50;7.37;;;9.90;92.60;;;;;;5094031;28;20019;-77
2021/01/29 07:56:14;;;;;;;19.60;8.23;;;9.90;92.50;;;;;;5111487;28;20471;-76
2021/01/29 07:58:53;;;;;;;16.00;8.60;;;9.90;92.50;;;;;;5112076;28;20110;-76
2021/01/29 08:01:41;;;;;;;21.47;8.87;;;9.90;92.40;;;;;;5094264;28;20016;-75
2021/01/29 08:04:21;;;;;;;21.03;9.87;;;9.90;92.50;;;;;;5090822;28;21002;-75
2021/01/29 08:06:57;;;;;;;24.70;10.60;;;9.90;92.40;;;;;;5076706;28;20381;-76
2021/01/29 08:09:24;;;;;;;25.63;9.30;;;9.90;92.30;;;;;;5099763;28;20027;-77
2021/01/29 08:11:56;;;;;;;26.40;9.33;;;10.00;92.10;;;;;;5082529;28;20103;-76
2021/01/29 08:14:56;;;;;;;28.13;9.00;;;10.00;91.90;;;;;;5096442;28;20031;-75
2021/01/29 08:17:27;;;;;;;32.97;11.43;;;10.00;91.90;;;;;;5093353;28;20043;-77
2021/01/29 08:20:14;;;;;;;27.00;10.00;;;10.00;91.60;;;;;;5075600;28;20415;-76
2021/01/29 08:22:45;;;;;;;18.03;7.30;;;10.00;91.40;;;;;;5078620;28;20059;-76
2021/01/29 08:25:48;;;;;;;28.30;8.20;;;10.00;91.30;;;;;;5073687;28;20052;-77
2021/01/29 08:28:36;;;;;;;32.37;10.33;;;10.00;91.30;;;;;;5089610;28;20035;-76
2021/01/29 08:31:27;;;;;;;30.13;7.30;;;10.00;91.30;;;;;;5084843;28;20061;-78
2021/01/29 08:34:04;;;;;;;22.67;7.47;;;10.00;91.10;;;;;;5080899;28;20043;-76
2021/01/29 08:36:45;;;;;;;32.83;7.90;;;10.00;91.00;;;;;;5085900;28;20039;-76
2021/01/29 08:39:24;;;;;;;26.73;9.27;;;10.00;90.90;;;;;;5081992;28;20032;-76
2021/01/29 08:42:15;;;;;;;31.13;8.57;;;10.00;90.90;;;;;;5099058;28;20037;-78
2021/01/29 08:44:43;;;;;;;33.03;8.20;;;10.00;90.80;;;;;;5100860;28;20046;-77
2021/01/29 08:47:30;;;;;;;27.07;8.07;;;10.00;90.70;;;;;;5099584;28;20041;-79
2021/01/29 08:50:38;;;;;;;30.03;9.23;;;10.00;90.60;;;;;;5081904;28;20061;-76
2021/01/29 08:53:37;;;;;;;31.27;6.97;;;10.00;90.40;;;;;;5024845;28;20038;-78
2021/01/29 08:56:12;;;;;;;30.73;6.33;;;10.00;90.20;;;;;;5104287;28;20156;-77
2021/01/29 08:59:09;;;;;;;26.53;9.40;;;10.00;89.80;;;;;;5107866;28;20024;-77
2021/01/29 09:01:42;;;;;;;32.03;10.00;;;10.00;89.90;;;;;;5084826;28;20139;-78
2021/01/29 09:04:22;;;;;;;37.50;8.27;;;10.00;89.90;;;;;;5081321;28;20090;-79
2021/01/29 09:06:50;;;;;;;29.67;7.73;;;10.10;89.60;;;;;;5105070;28;20059;-79
2021/01/29 09:09:21;;;;;;;29.73;7.20;;;10.10;88.90;;;;;;5099197;28;20032;-80
2021/01/29 09:11:52;;;;;;;31.43;9.87;;;10.20;88.80;;;;;;5088526;28;20032;-77
2021/01/29 09:14:42;;;;;;;28.83;7.90;;;10.20;88.80;;;;;;5086026;28;20020;-78
2021/01/29 09:17:14;;;;;;;32.10;9.07;;;10.30;88.40;;;;;;5084547;28;20037;-80
2021/01/29 09:19:51;;;;;;;33.08;9.10;;;10.30;87.90;;;;;;5102238;28;20088;-77
2021/01/29 09:22:44;;;;;;;32.30;10.03;;;10.30;87.60;;;;;;5098658;28;20031;-78
2021/01/29 09:25:20;;;;;;;35.70;9.70;;;10.40;87.40;;;;;;5087637;28;20015;-81
2021/01/29 09:28:13;;;;;;;26.60;8.03;;;10.50;87.10;;;;;;5087686;28;20019;-77
2021/01/29 09:31:18;;;;;;;34.17;8.27;;;10.50;86.60;;;;;;5107385;28;20032;-77
2021/01/29 09:33:49;;;;;;;32.73;8.53;;;10.50;86.30;;;;;;5090859;28;20032;-78
2021/01/29 09:36:21;;;;;;;34.37;8.60;;;10.90;86.40;;;;;;5082008;28;20486;-76
2021/01/29 09:38:47;;;;;;;30.90;7.03;;;11.00;85.50;;;;;;5096210;28;20023;-77
2021/01/29 09:41:24;;;;;;;33.20;7.93;;;10.90;85.00;;;;;;5107530;28;20379;-78
2021/01/29 09:44:13;;;;;;;30.47;6.23;;;11.00;85.20;;;;;;5086278;28;20028;-77
2021/01/29 09:46:42;;;;;;;32.03;7.33;;;11.00;84.20;;;;;;5092579;28;20103;-76
2021/01/29 09:49:18;;;;;;;30.70;7.80;;;11.00;83.90;;;;;;5112623;28;20069;-77
2021/01/29 09:52:11;;;;;;;26.90;7.70;;;11.10;84.20;;;;;;5114426;28;20024;-75
2021/01/29 09:55:15;;;;;;;28.15;7.18;;;11.10;83.90;;;;;;5087603;28;20161;-79
2021/01/29 09:57:54;;;;;;;32.63;8.30;;;11.10;84.60;;;;;;5102475;28;20037;-77
2021/01/29 10:00:37;;;;;;;33.53;7.63;;;11.10;84.00;;;;;;5096566;28;20028;-79
2021/01/29 10:03:07;;;;;;;25.92;6.55;;;11.10;83.80;;;;;;5080552;28;20015;-77
2021/01/29 10:05:50;;;;;;;32.13;7.07;;;11.10;84.10;;;;;;5102304;28;20226;-77
2021/01/29 10:08:28;;;;;;;27.88;6.88;;;11.10;84.30;;;;;;5089957;28;20165;-80
2021/01/29 10:11:00;;;;;;;37.30;7.43;;;11.20;84.10;;;;;;5090289;28;20115;-76
2021/01/29 10:13:48;;;;;;;30.10;8.23;;;11.30;83.60;;;;;;5090141;28;20047;-75
2021/01/29 10:16:17;;;;;;;34.17;6.90;;;11.40;83.40;;;;;;5092743;28;20028;-78
2021/01/29 10:18:57;;;;;;;34.80;7.30;;;11.50;83.20;;;;;;5086749;28;20044;-76
2021/01/29 10:21:52;;;;;;;29.53;7.33;;;11.60;82.70;;;;;;5078294;28;20092;-76
2021/01/29 10:24:30;;;;;;;31.67;6.97;;;11.70;82.80;;;;;;5048302;28;20032;-77
2021/01/29 10:27:05;;;;;;;28.03;6.43;;;11.90;82.30;;;;;;5106525;28;20032;-77
2021/01/29 10:29:33;;;;;;;29.57;7.80;;;12.00;81.20;;;;;;5091274;28;20027;-77
2021/01/29 10:32:22;;;;;;;26.50;6.23;;;12.00;81.10;;;;;;5092852;28;20110;-78
2021/01/29 10:35:16;;;;;;;27.63;6.83;;;11.90;81.20;;;;;;5088595;28;20459;-76
2021/01/29 10:37:48;;;;;;;23.53;6.17;;;11.90;81.60;;;;;;5106604;28;20130;-77
2021/01/29 10:40:33;;;;;;;27.37;7.27;;;11.80;81.40;;;;;;5103245;28;20023;-77
2021/01/29 10:43:18;;;;;;;35.00;7.47;;;11.80;81.20;;;;;;5087036;28;20106;-77
2021/01/29 10:45:57;;;;;;;27.93;7.40;;;11.70;81.40;;;;;;5105920;28;20072;-77
2021/01/29 10:48:57;;;;;;;30.17;8.67;;;11.60;81.80;;;;;;5089927;28;20024;-77
2021/01/29 10:51:26;;;;;;;27.23;6.63;;;11.70;82.00;;;;;;5105963;28;20080;-78
2021/01/29 10:53:58;;;;;;;25.67;6.77;;;11.70;81.30;;;;;;5096255;28;20482;-79
2021/01/29 10:56:28;;;;;;;25.77;5.40;;;11.60;82.00;;;;;;5095585;28;20114;-77
2021/01/29 10:59:11;;;;;;;25.37;6.43;;;11.50;82.00;;;;;;5093409;28;20020;-77
2021/01/29 11:01:45;;;;;;;30.48;6.22;;;11.40;81.30;;;;;;5085462;28;20077;-77
2021/01/29 11:04:32;;;;;;;29.10;5.87;;;11.30;81.50;;;;;;5088634;28;20553;-78
2021/01/29 11:07:05;;;;;;;25.77;5.93;;;11.40;81.60;;;;;;5096131;28;20103;-78
2021/01/29 11:09:40;;;;;;;30.50;7.35;;;11.30;81.80;;;;;;5112264;28;20024;-76
2021/01/29 11:12:12;;;;;;;31.17;6.20;;;11.20;82.30;;;;;;5111196;28;20031;-77
2021/01/29 11:14:51;;;;;;;28.70;5.90;;;11.20;82.40;;;;;;5107717;28;20039;-78
2021/01/29 11:17:23;;;;;;;31.67;5.97;;;11.20;82.50;;;;;;5096512;28;20043;-77
2021/01/29 11:19:51;;;;;;;26.67;6.45;;;11.20;82.80;;;;;;5058569;28;20106;-78
2021/01/29 11:22:19;;;;;;;28.23;7.10;;;11.30;82.50;;;;;;5072620;28;20472;-77
2021/01/29 11:24:59;;;;;;;25.23;5.83;;;11.40;82.10;;;;;;5073027;28;20024;-78
2021/01/29 11:27:36;;;;;;;30.43;6.37;;;11.40;81.80;;;;;;5071138;28;20512;-80
2021/01/29 11:30:12;;;;;;;24.23;5.70;;;11.50;82.00;;;;;;5072034;28;20024;-77
2021/01/29 11:32:40;;;;;;;31.30;5.67;;;11.50;81.50;;;;;;5084517;28;20028;-76
2021/01/29 11:35:11;;;;;;;33.53;7.17;;;11.50;81.00;;;;;;5070796;28;20453;-76
2021/01/29 11:37:58;;;;;;;29.20;6.17;;;11.40;81.20;;;;;;5071736;28;20044;-78
2021/01/29 11:41:13;;;;;;;29.23;6.20;;;11.50;81.60;;;;;;5050088;28;20028;-81
2021/01/29 11:43:57;;;;;;;26.30;5.20;;;11.50;81.60;;;;;;4985033;28;20031;-77
2021/01/29 11:46:34;;;;;;;26.63;4.77;;;11.60;81.60;;;;;;4980026;28;20073;-77
2021/01/29 11:49:03;;;;;;;26.80;5.00;;;11.60;81.00;;;;;;5047613;28;20138;-76
2021/01/29 11:51:44;;;;;;;27.90;6.07;;;11.60;80.80;;;;;;5072233;28;20028;-77
2021/01/29 11:54:12;;;;;;;23.77;4.40;;;11.70;81.10;;;;;;5070682;28;20035;-77
2021/01/29 11:56:50;;;;;;;26.83;5.90;;;11.80;80.80;;;;;;5070874;28;20042;-76
2021/01/29 11:59:24;;;;;;;25.80;5.87;;;11.90;81.10;;;;;;5060746;28;20040;-76
2021/01/29 12:01:58;;;;;;;26.73;4.90;;;12.20;80.60;;;;;;5067942;28;20027;-75
2021/01/29 12:04:43;;;;;;;26.53;7.30;;;12.30;79.90;;;;;;5063204;28;20056;-77
2021/01/29 12:07:22;;;;;;;21.83;3.93;;;12.50;79.60;;;;;;5055444;28;20056;-76
2021/01/29 12:09:58;;;;;;;25.30;4.23;;;12.60;79.00;;;;;;5070985;28;20112;-75
2021/01/29 12:12:53;;;;;;;20.97;4.93;;;12.70;78.20;;;;;;5062821;28;20033;-76
2021/01/29 12:15:27;;;;;;;27.03;5.37;;;12.70;77.80;;;;;;5070545;28;20055;-76
2021/01/29 12:17:57;;;;;;;19.40;3.57;;;12.70;78.20;;;;;;5080117;28;20484;-75
2021/01/29 12:20:27;;;;;;;21.00;5.43;;;12.50;78.10;;;;;;5072631;28;20024;-75
2021/01/29 12:23:11;;;;;;;20.40;4.10;;;12.30;78.30;;;;;;5071421;28;20028;-75
2021/01/29 12:26:16;;;;;;;18.10;3.50;;;12.10;79.10;;;;;;5090110;28;20085;-76
2021/01/29 12:29:16;;;;;;;16.10;3.60;;;11.90;79.30;;;;;;5046524;28;20040;-75
2021/01/29 12:31:48;;;;;;;15.53;4.57;;;11.70;79.80;;;;;;5087352;28;20040;-76
2021/01/29 12:35:02;;;;;;;9.73;2.67;;;11.40;80.20;;;;;;5116974;27;20387;-75
2021/01/29 12:37:35;;;;;;;14.13;3.27;;;11.20;80.50;;;;;;5091193;28;20042;-76
2021/01/29 12:40:23;;;;;;;;;;;11.10;81.10;;;;;;5090047;28;20020;-78
2021/01/29 12:43:01;;;;;;;12.40;2.77;;;11.00;81.60;;;;;;5040004;28;20271;-76
2021/01/29 12:45:48;;;;;;;14.10;4.60;;;11.00;81.90;;;;;;5075763;28;20070;-75
2021/01/29 12:48:15;;;;;;;15.47;4.40;;;11.00;82.90;;;;;;5096413;28;20028;-76
2021/01/29 12:50:56;;;;;;;19.37;4.33;;;11.10;83.60;;;;;;5089254;28;20028;-76
2021/01/29 12:53:40;;;;;;;19.33;4.37;;;11.30;83.90;;;;;;5088237;28;20492;-76
2021/01/29 12:56:24;;;;;;;;;;;11.50;83.50;;;;;;5076641;28;20058;-76
2021/01/29 12:58:57;;;;;;;20.73;5.90;;;11.70;83.20;;;;;;5107618;28;20000;-76
2021/01/29 13:02:04;;;;;;;21.00;5.32;;;11.90;83.10;;;;;;5070074;28;20078;-75
2021/01/29 13:04:46;;;;;;;24.57;4.73;;;12.10;82.30;;;;;;5089806;28;20511;-80
2021/01/29 13:07:15;;;;;;;22.00;4.43;;;12.20;81.40;;;;;;5085314;28;20027;-77
2021/01/29 13:09:56;;;;;;;24.43;3.90;;;12.30;81.10;;;;;;5102215;28;20081;-76
2021/01/29 13:12:31;;;;;;;27.67;4.43;;;12.30;79.70;;;;;;5088498;28;20027;-75
2021/01/29 13:15:23;;;;;;;22.40;5.20;;;12.30;79.90;;;;;;5090069;28;20051;-75
2021/01/29 13:18:14;;;;;;;19.37;4.87;;;12.20;79.00;;;;;;5099562;28;20031;-76
2021/01/29 13:20:45;;;;;;;22.57;5.17;;;12.10;79.20;;;;;;5075278;28;20029;-76
2021/01/29 13:23:31;;;;;;;22.10;4.93;;;12.00;79.50;;;;;;5101830;28;20462;-75
2021/01/29 13:26:10;;;;;;;21.87;4.70;;;11.80;79.70;;;;;;5087278;28;20051;-75
2021/01/29 13:28:39;;;;;;;24.60;4.57;;;11.70;79.30;;;;;;5098699;28;20551;-80
2021/01/29 13:31:38;;;;;;;15.13;3.57;;;11.50;78.80;;;;;;5088872;28;20059;-75
2021/01/29 13:34:11;;;;;;;16.73;3.37;;;11.40;77.90;;;;;;5071374;28;20060;-76
2021/01/29 13:36:38;;;;;;;20.80;4.40;;;11.40;77.50;;;;;;5088196;28;20107;-77
2021/01/29 13:39:09;;;;;;;17.03;3.87;;;11.40;77.90;;;;;;5090791;28;20032;-76
2021/01/29 13:41:57;;;;;;;16.57;3.70;;;11.40;78.10;;;;;;5098085;28;20031;-75
2021/01/29 13:44:36;;;;;;;16.97;3.70;;;11.50;78.20;;;;;;5106560;28;20112;-75
2021/01/29 13:47:04;;;;;;;12.63;4.10;;;11.50;77.50;;;;;;5092433;28;20483;-75